sensor_id;sensor_type;location;lat;lon;timestamp;P1;durP1;ratioP1;P2;durP2;ratioP2
3447;SDS011;1738;49.500;17.736;2022-07-29T00:00:41;10.57;;;6.90;;
3447;SDS011;1738;49.500;17.736;2022-07-29T00:03:07;13.70;;;7.28;;
3447;SDS011;1738;49.500;17.736;2022-07-29T00:05:32;14.40;;;7.97;;
3447;SDS011;1738;49.500;17.736;2022-07-29T00:07:58;8.35;;;6.85;;
3447;SDS011;1738;49.500;17.736;2022-07-29T00:10:24;10.30;;;7.47;;
3447;SDS011;1738;49.500;17.736;2022-07-29T00:12:50;14.03;;;8.30;;
3447;SDS011;1738;49.500;17.736;2022-07-29T00:15:16;9.47;;;7.17;;
3447;SDS011;1738;49.500;17.736;2022-07-29T00:17:42;10.80;;;7.17;;
3447;SDS011;1738;49.500;17.736;2022-07-29T00:20:08;16.47;;;7.53;;
3447;SDS011;1738;49.500;17.736;2022-07-29T00:22:36;13.93;;;7.60;;
3447;SDS011;1738;49.500;17.736;2022-07-29T00:25:00;9.98;;;7.93;;
3447;SDS011;1738;49.500;17.736;2022-07-29T00:27:26;8.60;;;7.70;;
3447;SDS011;1738;49.500;17.736;2022-07-29T00:29:52;11.23;;;8.07;;
3447;SDS011;1738;49.500;17.736;2022-07-29T00:32:17;11.47;;;8.00;;
3447;SDS011;1738;49.500;17.736;2022-07-29T00:34:43;11.43;;;8.20;;
3447;SDS011;1738;49.500;17.736;2022-07-29T00:37:15;13.93;;;7.95;;
3447;SDS011;1738;49.500;17.736;2022-07-29T00:39:41;12.83;;;9.20;;
3447;SDS011;1738;49.500;17.736;2022-07-29T00:42:07;11.23;;;9.07;;
3447;SDS011;1738;49.500;17.736;2022-07-29T00:44:37;13.73;;;8.90;;
3447;SDS011;1738;49.500;17.736;2022-07-29T00:47:02;12.80;;;9.10;;
3447;SDS011;1738;49.500;17.736;2022-07-29T00:49:27;15.90;;;9.25;;
3447;SDS011;1738;49.500;17.736;2022-07-29T00:51:54;12.07;;;8.83;;
3447;SDS011;1738;49.500;17.736;2022-07-29T00:54:20;11.83;;;9.07;;
3447;SDS011;1738;49.500;17.736;2022-07-29T00:56:45;15.53;;;7.53;;
3447;SDS011;1738;49.500;17.736;2022-07-29T00:59:11;14.23;;;9.20;;
3447;SDS011;1738;49.500;17.736;2022-07-29T01:01:37;18.90;;;8.87;;
3447;SDS011;1738;49.500;17.736;2022-07-29T01:04:03;15.60;;;8.40;;
3447;SDS011;1738;49.500;17.736;2022-07-29T01:06:29;13.10;;;8.53;;
3447;SDS011;1738;49.500;17.736;2022-07-29T01:08:55;14.00;;;8.90;;
3447;SDS011;1738;49.500;17.736;2022-07-29T01:11:21;14.02;;;9.50;;
3447;SDS011;1738;49.500;17.736;2022-07-29T01:13:47;13.70;;;9.67;;
3447;SDS011;1738;49.500;17.736;2022-07-29T01:16:13;12.23;;;10.00;;
3447;SDS011;1738;49.500;17.736;2022-07-29T01:18:39;10.53;;;8.10;;
3447;SDS011;1738;49.500;17.736;2022-07-29T01:26:52;12.47;;;9.20;;
3447;SDS011;1738;49.500;17.736;2022-07-29T01:29:05;12.33;;;9.60;;
3447;SDS011;1738;49.500;17.736;2022-07-29T01:31:35;11.60;;;9.77;;
3447;SDS011;1738;49.500;17.736;2022-07-29T01:34:00;17.87;;;10.17;;
3447;SDS011;1738;49.500;17.736;2022-07-29T01:37:01;13.83;;;11.27;;
3447;SDS011;1738;49.500;17.736;2022-07-29T01:39:08;18.43;;;9.83;;
3447;SDS011;1738;49.500;17.736;2022-07-29T01:41:33;15.73;;;10.30;;
3447;SDS011;1738;49.500;17.736;2022-07-29T01:44:01;19.23;;;11.83;;
3447;SDS011;1738;49.500;17.736;2022-07-29T01:46:28;12.60;;;9.43;;
3447;SDS011;1738;49.500;17.736;2022-07-29T01:48:54;20.37;;;11.73;;
3447;SDS011;1738;49.500;17.736;2022-07-29T01:51:21;14.53;;;10.43;;
3447;SDS011;1738;49.500;17.736;2022-07-29T01:54:07;15.33;;;10.40;;
3447;SDS011;1738;49.500;17.736;2022-07-29T01:56:29;17.30;;;11.63;;
3447;SDS011;1738;49.500;17.736;2022-07-29T01:58:55;13.13;;;10.33;;
3447;SDS011;1738;49.500;17.736;2022-07-29T02:01:21;15.90;;;11.77;;
3447;SDS011;1738;49.500;17.736;2022-07-29T02:03:47;13.90;;;10.90;;
3447;SDS011;1738;49.500;17.736;2022-07-29T02:06:14;15.90;;;10.88;;
3447;SDS011;1738;49.500;17.736;2022-07-29T02:08:39;16.55;;;12.00;;
3447;SDS011;1738;49.500;17.736;2022-07-29T02:11:05;25.00;;;10.87;;
3447;SDS011;1738;49.500;17.736;2022-07-29T02:13:31;17.10;;;10.70;;
3447;SDS011;1738;49.500;17.736;2022-07-29T02:15:57;19.17;;;11.13;;
3447;SDS011;1738;49.500;17.736;2022-07-29T02:18:23;15.70;;;11.70;;
3447;SDS011;1738;49.500;17.736;2022-07-29T02:20:49;14.13;;;10.50;;
3447;SDS011;1738;49.500;17.736;2022-07-29T02:23:15;16.23;;;12.07;;
3447;SDS011;1738;49.500;17.736;2022-07-29T02:25:41;22.00;;;11.80;;
3447;SDS011;1738;49.500;17.736;2022-07-29T02:28:06;17.50;;;11.48;;
3447;SDS011;1738;49.500;17.736;2022-07-29T02:30:32;20.27;;;12.07;;
3447;SDS011;1738;49.500;17.736;2022-07-29T02:32:58;16.90;;;12.17;;
3447;SDS011;1738;49.500;17.736;2022-07-29T02:35:24;26.40;;;13.90;;
3447;SDS011;1738;49.500;17.736;2022-07-29T02:37:49;18.83;;;12.50;;
3447;SDS011;1738;49.500;17.736;2022-07-29T02:40:15;22.60;;;12.17;;
3447;SDS011;1738;49.500;17.736;2022-07-29T02:42:42;15.80;;;12.77;;
3447;SDS011;1738;49.500;17.736;2022-07-29T02:45:07;17.30;;;12.17;;
3447;SDS011;1738;49.500;17.736;2022-07-29T02:47:35;14.63;;;12.03;;
3447;SDS011;1738;49.500;17.736;2022-07-29T02:50:02;18.57;;;13.87;;
3447;SDS011;1738;49.500;17.736;2022-07-29T02:52:26;29.73;;;13.30;;
3447;SDS011;1738;49.500;17.736;2022-07-29T02:54:55;18.57;;;12.10;;
3447;SDS011;1738;49.500;17.736;2022-07-29T02:57:23;16.87;;;12.10;;
3447;SDS011;1738;49.500;17.736;2022-07-29T02:59:47;18.73;;;12.43;;
3447;SDS011;1738;49.500;17.736;2022-07-29T03:02:12;18.10;;;13.37;;
3447;SDS011;1738;49.500;17.736;2022-07-29T03:04:38;16.20;;;12.77;;
3447;SDS011;1738;49.500;17.736;2022-07-29T03:07:04;18.73;;;12.67;;
3447;SDS011;1738;49.500;17.736;2022-07-29T03:09:29;14.50;;;11.87;;
3447;SDS011;1738;49.500;17.736;2022-07-29T03:11:55;16.07;;;13.30;;
3447;SDS011;1738;49.500;17.736;2022-07-29T03:14:21;13.60;;;11.77;;
3447;SDS011;1738;49.500;17.736;2022-07-29T03:16:47;20.57;;;12.07;;
3447;SDS011;1738;49.500;17.736;2022-07-29T03:19:13;15.20;;;11.77;;
3447;SDS011;1738;49.500;17.736;2022-07-29T03:21:39;20.63;;;12.90;;
3447;SDS011;1738;49.500;17.736;2022-07-29T03:24:05;17.93;;;13.47;;
3447;SDS011;1738;49.500;17.736;2022-07-29T03:26:31;22.83;;;13.87;;
3447;SDS011;1738;49.500;17.736;2022-07-29T03:28:56;16.03;;;12.57;;
3447;SDS011;1738;49.500;17.736;2022-07-29T03:31:22;19.20;;;13.53;;
3447;SDS011;1738;49.500;17.736;2022-07-29T03:33:48;14.77;;;12.50;;
3447;SDS011;1738;49.500;17.736;2022-07-29T03:36:14;19.17;;;12.87;;
3447;SDS011;1738;49.500;17.736;2022-07-29T03:38:40;13.93;;;12.03;;
3447;SDS011;1738;49.500;17.736;2022-07-29T03:41:07;16.60;;;12.23;;
3447;SDS011;1738;49.500;17.736;2022-07-29T03:43:32;13.60;;;10.40;;
3447;SDS011;1738;49.500;17.736;2022-07-29T03:45:57;14.97;;;12.83;;
3447;SDS011;1738;49.500;17.736;2022-07-29T03:48:23;14.20;;;10.83;;
3447;SDS011;1738;49.500;17.736;2022-07-29T03:50:49;14.23;;;11.70;;
3447;SDS011;1738;49.500;17.736;2022-07-29T03:53:15;15.13;;;11.50;;
3447;SDS011;1738;49.500;17.736;2022-07-29T03:55:41;13.83;;;11.10;;
3447;SDS011;1738;49.500;17.736;2022-07-29T03:58:07;16.45;;;11.90;;
3447;SDS011;1738;49.500;17.736;2022-07-29T04:00:33;17.40;;;11.63;;
3447;SDS011;1738;49.500;17.736;2022-07-29T04:02:58;15.17;;;11.27;;
3447;SDS011;1738;49.500;17.736;2022-07-29T04:05:24;21.13;;;12.53;;
3447;SDS011;1738;49.500;17.736;2022-07-29T04:07:50;17.23;;;11.60;;
3447;SDS011;1738;49.500;17.736;2022-07-29T04:10:16;14.53;;;11.17;;
3447;SDS011;1738;49.500;17.736;2022-07-29T04:12:42;17.70;;;11.47;;
3447;SDS011;1738;49.500;17.736;2022-07-29T04:15:08;11.30;;;10.03;;
3447;SDS011;1738;49.500;17.736;2022-07-29T04:17:35;12.05;;;10.55;;
3447;SDS011;1738;49.500;17.736;2022-07-29T04:20:00;13.67;;;11.27;;
3447;SDS011;1738;49.500;17.736;2022-07-29T04:22:26;20.63;;;10.10;;
3447;SDS011;1738;49.500;17.736;2022-07-29T04:24:52;14.53;;;10.43;;
3447;SDS011;1738;49.500;17.736;2022-07-29T04:27:18;14.63;;;11.40;;
3447;SDS011;1738;49.500;17.736;2022-07-29T04:29:44;13.07;;;10.33;;
3447;SDS011;1738;49.500;17.736;2022-07-29T04:32:10;16.63;;;10.10;;
3447;SDS011;1738;49.500;17.736;2022-07-29T04:34:35;17.67;;;11.50;;
3447;SDS011;1738;49.500;17.736;2022-07-29T04:37:01;29.13;;;13.97;;
3447;SDS011;1738;49.500;17.736;2022-07-29T04:39:27;15.10;;;11.10;;
3447;SDS011;1738;49.500;17.736;2022-07-29T04:41:53;12.53;;;10.83;;
3447;SDS011;1738;49.500;17.736;2022-07-29T04:44:19;15.87;;;11.43;;
3447;SDS011;1738;49.500;17.736;2022-07-29T04:46:45;18.57;;;11.50;;
3447;SDS011;1738;49.500;17.736;2022-07-29T04:49:11;15.25;;;11.48;;
3447;SDS011;1738;49.500;17.736;2022-07-29T04:51:36;16.97;;;12.50;;
3447;SDS011;1738;49.500;17.736;2022-07-29T04:54:02;16.10;;;10.80;;
3447;SDS011;1738;49.500;17.736;2022-07-29T04:56:28;17.20;;;11.63;;
3447;SDS011;1738;49.500;17.736;2022-07-29T04:58:54;32.60;;;12.07;;
3447;SDS011;1738;49.500;17.736;2022-07-29T05:01:20;20.17;;;11.75;;
3447;SDS011;1738;49.500;17.736;2022-07-29T05:03:46;13.10;;;10.57;;
3447;SDS011;1738;49.500;17.736;2022-07-29T05:06:12;14.87;;;9.80;;
3447;SDS011;1738;49.500;17.736;2022-07-29T05:08:37;19.50;;;13.17;;
3447;SDS011;1738;49.500;17.736;2022-07-29T05:11:03;12.65;;;10.57;;
3447;SDS011;1738;49.500;17.736;2022-07-29T05:13:29;14.30;;;10.37;;
3447;SDS011;1738;49.500;17.736;2022-07-29T05:15:55;18.27;;;10.83;;
3447;SDS011;1738;49.500;17.736;2022-07-29T05:18:21;14.37;;;10.10;;
3447;SDS011;1738;49.500;17.736;2022-07-29T05:20:47;17.70;;;10.63;;
3447;SDS011;1738;49.500;17.736;2022-07-29T05:23:13;14.33;;;9.80;;
3447;SDS011;1738;49.500;17.736;2022-07-29T05:25:39;15.43;;;11.10;;
3447;SDS011;1738;49.500;17.736;2022-07-29T05:28:05;14.87;;;10.93;;
3447;SDS011;1738;49.500;17.736;2022-07-29T05:30:31;15.17;;;11.00;;
3447;SDS011;1738;49.500;17.736;2022-07-29T05:32:57;15.40;;;9.90;;
3447;SDS011;1738;49.500;17.736;2022-07-29T05:35:22;17.23;;;10.27;;
3447;SDS011;1738;49.500;17.736;2022-07-29T05:37:48;17.27;;;10.93;;
3447;SDS011;1738;49.500;17.736;2022-07-29T05:40:14;11.73;;;9.63;;
3447;SDS011;1738;49.500;17.736;2022-07-29T05:42:40;13.47;;;9.80;;
3447;SDS011;1738;49.500;17.736;2022-07-29T05:45:06;14.37;;;8.87;;
3447;SDS011;1738;49.500;17.736;2022-07-29T05:47:32;11.40;;;9.40;;
3447;SDS011;1738;49.500;17.736;2022-07-29T05:49:58;16.23;;;10.47;;
3447;SDS011;1738;49.500;17.736;2022-07-29T05:52:23;20.47;;;10.20;;
3447;SDS011;1738;49.500;17.736;2022-07-29T05:54:49;13.23;;;9.50;;
3447;SDS011;1738;49.500;17.736;2022-07-29T05:57:17;15.57;;;10.90;;
3447;SDS011;1738;49.500;17.736;2022-07-29T05:59:42;16.50;;;10.30;;
3447;SDS011;1738;49.500;17.736;2022-07-29T06:02:08;14.33;;;11.10;;
3447;SDS011;1738;49.500;17.736;2022-07-29T06:04:34;15.43;;;9.60;;
3447;SDS011;1738;49.500;17.736;2022-07-29T06:06:59;17.07;;;10.07;;
3447;SDS011;1738;49.500;17.736;2022-07-29T06:09:25;14.70;;;9.60;;
3447;SDS011;1738;49.500;17.736;2022-07-29T06:11:51;18.67;;;9.83;;
3447;SDS011;1738;49.500;17.736;2022-07-29T06:14:17;15.37;;;12.77;;
3447;SDS011;1738;49.500;17.736;2022-07-29T06:16:43;20.20;;;10.50;;
3447;SDS011;1738;49.500;17.736;2022-07-29T06:19:09;17.90;;;10.30;;
3447;SDS011;1738;49.500;17.736;2022-07-29T06:21:35;12.60;;;10.80;;
3447;SDS011;1738;49.500;17.736;2022-07-29T06:24:01;23.80;;;11.20;;
3447;SDS011;1738;49.500;17.736;2022-07-29T06:26:27;14.37;;;10.80;;
3447;SDS011;1738;49.500;17.736;2022-07-29T06:28:54;16.43;;;10.50;;
3447;SDS011;1738;49.500;17.736;2022-07-29T06:31:19;14.63;;;10.40;;
3447;SDS011;1738;49.500;17.736;2022-07-29T06:33:45;17.77;;;11.38;;
3447;SDS011;1738;49.500;17.736;2022-07-29T06:36:11;23.00;;;10.80;;
3447;SDS011;1738;49.500;17.736;2022-07-29T06:38:37;20.43;;;11.40;;
3447;SDS011;1738;49.500;17.736;2022-07-29T06:41:03;15.47;;;10.90;;
3447;SDS011;1738;49.500;17.736;2022-07-29T06:43:30;14.63;;;10.70;;
3447;SDS011;1738;49.500;17.736;2022-07-29T06:45:55;18.40;;;11.30;;
3447;SDS011;1738;49.500;17.736;2022-07-29T06:48:21;15.00;;;9.90;;
3447;SDS011;1738;49.500;17.736;2022-07-29T06:50:47;18.10;;;10.53;;
3447;SDS011;1738;49.500;17.736;2022-07-29T06:53:12;17.33;;;10.30;;
3447;SDS011;1738;49.500;17.736;2022-07-29T06:55:38;18.57;;;9.83;;
3447;SDS011;1738;49.500;17.736;2022-07-29T06:58:04;12.13;;;8.50;;
3447;SDS011;1738;49.500;17.736;2022-07-29T07:00:30;15.97;;;9.27;;
3447;SDS011;1738;49.500;17.736;2022-07-29T07:02:56;15.50;;;9.00;;
3447;SDS011;1738;49.500;17.736;2022-07-29T07:05:22;12.50;;;9.60;;
3447;SDS011;1738;49.500;17.736;2022-07-29T07:07:47;11.60;;;9.30;;
3447;SDS011;1738;49.500;17.736;2022-07-29T07:10:13;13.37;;;9.60;;
3447;SDS011;1738;49.500;17.736;2022-07-29T07:12:39;11.43;;;7.90;;
3447;SDS011;1738;49.500;17.736;2022-07-29T07:15:05;25.30;;;9.27;;
3447;SDS011;1738;49.500;17.736;2022-07-29T07:17:31;10.20;;;8.27;;
3447;SDS011;1738;49.500;17.736;2022-07-29T07:19:57;12.97;;;9.10;;
3447;SDS011;1738;49.500;17.736;2022-07-29T07:22:23;14.27;;;9.10;;
3447;SDS011;1738;49.500;17.736;2022-07-29T07:24:49;11.43;;;8.70;;
3447;SDS011;1738;49.500;17.736;2022-07-29T07:27:15;12.30;;;9.30;;
3447;SDS011;1738;49.500;17.736;2022-07-29T07:29:40;15.40;;;9.43;;
3447;SDS011;1738;49.500;17.736;2022-07-29T07:32:07;10.17;;;7.80;;
3447;SDS011;1738;49.500;17.736;2022-07-29T07:34:32;13.57;;;8.93;;
3447;SDS011;1738;49.500;17.736;2022-07-29T07:36:58;13.13;;;8.10;;
3447;SDS011;1738;49.500;17.736;2022-07-29T07:39:24;15.40;;;8.50;;
3447;SDS011;1738;49.500;17.736;2022-07-29T07:41:50;13.17;;;8.47;;
3447;SDS011;1738;49.500;17.736;2022-07-29T07:44:16;12.00;;;8.20;;
3447;SDS011;1738;49.500;17.736;2022-07-29T07:46:41;16.33;;;7.50;;
3447;SDS011;1738;49.500;17.736;2022-07-29T07:49:07;8.90;;;7.63;;
3447;SDS011;1738;49.500;17.736;2022-07-29T07:51:33;13.70;;;8.00;;
3447;SDS011;1738;49.500;17.736;2022-07-29T07:53:59;13.00;;;7.90;;
3447;SDS011;1738;49.500;17.736;2022-07-29T07:56:25;8.37;;;7.17;;
3447;SDS011;1738;49.500;17.736;2022-07-29T07:58:51;10.10;;;6.83;;
3447;SDS011;1738;49.500;17.736;2022-07-29T08:01:17;11.80;;;7.50;;
3447;SDS011;1738;49.500;17.736;2022-07-29T08:03:42;9.20;;;7.23;;
3447;SDS011;1738;49.500;17.736;2022-07-29T08:06:08;13.43;;;7.17;;
3447;SDS011;1738;49.500;17.736;2022-07-29T08:08:34;13.50;;;7.90;;
3447;SDS011;1738;49.500;17.736;2022-07-29T08:11:00;9.70;;;7.40;;
3447;SDS011;1738;49.500;17.736;2022-07-29T08:13:26;16.50;;;8.13;;
3447;SDS011;1738;49.500;17.736;2022-07-29T08:15:53;10.93;;;6.93;;
3447;SDS011;1738;49.500;17.736;2022-07-29T08:18:23;11.20;;;7.40;;
3447;SDS011;1738;49.500;17.736;2022-07-29T08:20:48;9.07;;;7.20;;
3447;SDS011;1738;49.500;17.736;2022-07-29T08:23:14;17.10;;;9.20;;
3447;SDS011;1738;49.500;17.736;2022-07-29T08:25:40;15.40;;;8.50;;
3447;SDS011;1738;49.500;17.736;2022-07-29T08:28:06;14.70;;;7.97;;
3447;SDS011;1738;49.500;17.736;2022-07-29T08:30:32;12.43;;;8.33;;
3447;SDS011;1738;49.500;17.736;2022-07-29T08:32:58;13.63;;;8.80;;
3447;SDS011;1738;49.500;17.736;2022-07-29T08:35:24;16.20;;;9.00;;
3447;SDS011;1738;49.500;17.736;2022-07-29T08:37:49;11.03;;;8.13;;
3447;SDS011;1738;49.500;17.736;2022-07-29T08:40:15;9.20;;;8.20;;
3447;SDS011;1738;49.500;17.736;2022-07-29T08:42:41;13.73;;;8.40;;
3447;SDS011;1738;49.500;17.736;2022-07-29T08:45:07;14.13;;;8.87;;
3447;SDS011;1738;49.500;17.736;2022-07-29T08:47:33;11.23;;;7.60;;
3447;SDS011;1738;49.500;17.736;2022-07-29T08:49:59;14.17;;;8.13;;
3447;SDS011;1738;49.500;17.736;2022-07-29T08:52:25;20.43;;;9.93;;
3447;SDS011;1738;49.500;17.736;2022-07-29T08:54:50;14.17;;;8.13;;
3447;SDS011;1738;49.500;17.736;2022-07-29T08:57:16;13.27;;;8.37;;
3447;SDS011;1738;49.500;17.736;2022-07-29T08:59:42;13.33;;;7.97;;
3447;SDS011;1738;49.500;17.736;2022-07-29T09:02:11;12.37;;;8.07;;
3447;SDS011;1738;49.500;17.736;2022-07-29T09:04:34;12.00;;;7.63;;
3447;SDS011;1738;49.500;17.736;2022-07-29T09:07:00;14.40;;;7.40;;
3447;SDS011;1738;49.500;17.736;2022-07-29T09:09:26;19.10;;;7.33;;
3447;SDS011;1738;49.500;17.736;2022-07-29T09:11:52;8.23;;;7.10;;
3447;SDS011;1738;49.500;17.736;2022-07-29T09:14:17;8.77;;;6.63;;
3447;SDS011;1738;49.500;17.736;2022-07-29T09:16:46;13.77;;;7.87;;
3447;SDS011;1738;49.500;17.736;2022-07-29T09:21:43;11.33;;;7.13;;
3447;SDS011;1738;49.500;17.736;2022-07-29T09:24:14;7.63;;;6.23;;
3447;SDS011;1738;49.500;17.736;2022-07-29T09:26:41;11.43;;;7.90;;
3447;SDS011;1738;49.500;17.736;2022-07-29T09:29:07;8.20;;;6.50;;
3447;SDS011;1738;49.500;17.736;2022-07-29T09:31:34;10.90;;;6.60;;
3447;SDS011;1738;49.500;17.736;2022-07-29T09:33:58;12.30;;;8.10;;
3447;SDS011;1738;49.500;17.736;2022-07-29T09:36:24;9.33;;;7.90;;
3447;SDS011;1738;49.500;17.736;2022-07-29T09:38:57;12.40;;;8.13;;
3447;SDS011;1738;49.500;17.736;2022-07-29T09:41:22;17.10;;;7.27;;
3447;SDS011;1738;49.500;17.736;2022-07-29T09:43:53;11.20;;;7.80;;
3447;SDS011;1738;49.500;17.736;2022-07-29T09:46:18;10.37;;;6.87;;
3447;SDS011;1738;49.500;17.736;2022-07-29T09:48:44;12.57;;;8.23;;
3447;SDS011;1738;49.500;17.736;2022-07-29T09:51:17;10.53;;;7.63;;
3447;SDS011;1738;49.500;17.736;2022-07-29T09:53:42;10.70;;;6.33;;
3447;SDS011;1738;49.500;17.736;2022-07-29T09:56:08;12.17;;;7.27;;
3447;SDS011;1738;49.500;17.736;2022-07-29T09:58:34;8.87;;;6.93;;
3447;SDS011;1738;49.500;17.736;2022-07-29T10:01:00;9.70;;;6.27;;
3447;SDS011;1738;49.500;17.736;2022-07-29T10:03:26;11.60;;;6.77;;
3447;SDS011;1738;49.500;17.736;2022-07-29T10:08:25;14.07;;;6.97;;
3447;SDS011;1738;49.500;17.736;2022-07-29T10:10:50;7.23;;;6.33;;
3447;SDS011;1738;49.500;17.736;2022-07-29T10:13:16;7.37;;;6.43;;
3447;SDS011;1738;49.500;17.736;2022-07-29T10:15:42;8.40;;;7.50;;
3447;SDS011;1738;49.500;17.736;2022-07-29T10:18:08;23.83;;;9.77;;
3447;SDS011;1738;49.500;17.736;2022-07-29T10:20:34;10.20;;;6.63;;
3447;SDS011;1738;49.500;17.736;2022-07-29T10:22:59;13.00;;;6.50;;
3447;SDS011;1738;49.500;17.736;2022-07-29T10:25:27;9.17;;;7.63;;
3447;SDS011;1738;49.500;17.736;2022-07-29T10:27:51;7.50;;;6.07;;
3447;SDS011;1738;49.500;17.736;2022-07-29T10:30:17;14.27;;;6.27;;
3447;SDS011;1738;49.500;17.736;2022-07-29T10:32:53;8.63;;;6.80;;
3447;SDS011;1738;49.500;17.736;2022-07-29T10:39:14;12.47;;;7.73;;
3447;SDS011;1738;49.500;17.736;2022-07-29T10:40:54;8.83;;;6.93;;
3447;SDS011;1738;49.500;17.736;2022-07-29T10:43:28;7.90;;;5.90;;
3447;SDS011;1738;49.500;17.736;2022-07-29T10:45:56;9.80;;;6.77;;
3447;SDS011;1738;49.500;17.736;2022-07-29T10:48:20;11.27;;;6.90;;
3447;SDS011;1738;49.500;17.736;2022-07-29T10:50:52;8.97;;;5.83;;
3447;SDS011;1738;49.500;17.736;2022-07-29T10:53:17;11.40;;;6.63;;
3447;SDS011;1738;49.500;17.736;2022-07-29T10:55:43;9.73;;;6.60;;
3447;SDS011;1738;49.500;17.736;2022-07-29T10:58:11;8.23;;;5.63;;
3447;SDS011;1738;49.500;17.736;2022-07-29T11:00:36;7.67;;;5.60;;
3447;SDS011;1738;49.500;17.736;2022-07-29T11:03:01;10.23;;;7.00;;
3447;SDS011;1738;49.500;17.736;2022-07-29T11:05:27;13.33;;;6.63;;
3447;SDS011;1738;49.500;17.736;2022-07-29T11:10:25;8.83;;;6.47;;
3447;SDS011;1738;49.500;17.736;2022-07-29T11:12:51;13.47;;;6.70;;
3447;SDS011;1738;49.500;17.736;2022-07-29T11:15:18;11.00;;;6.43;;
3447;SDS011;1738;49.500;17.736;2022-07-29T11:22:47;10.90;;;6.33;;
3447;SDS011;1738;49.500;17.736;2022-07-29T11:25:14;11.47;;;6.93;;
3447;SDS011;1738;49.500;17.736;2022-07-29T11:27:40;9.37;;;7.13;;
3447;SDS011;1738;49.500;17.736;2022-07-29T11:30:06;9.73;;;6.50;;
3447;SDS011;1738;49.500;17.736;2022-07-29T11:32:37;10.30;;;5.77;;
3447;SDS011;1738;49.500;17.736;2022-07-29T11:37:33;9.00;;;6.00;;
3447;SDS011;1738;49.500;17.736;2022-07-29T11:40:11;13.80;;;6.83;;
3447;SDS011;1738;49.500;17.736;2022-07-29T11:42:37;9.20;;;6.33;;
3447;SDS011;1738;49.500;17.736;2022-07-29T11:45:10;9.97;;;7.10;;
3447;SDS011;1738;49.500;17.736;2022-07-29T11:47:37;8.77;;;7.13;;
3447;SDS011;1738;49.500;17.736;2022-07-29T11:50:02;12.03;;;6.40;;
3447;SDS011;1738;49.500;17.736;2022-07-29T11:52:33;87.97;;;20.23;;
3447;SDS011;1738;49.500;17.736;2022-07-29T11:54:59;8.73;;;6.20;;
3447;SDS011;1738;49.500;17.736;2022-07-29T11:57:24;12.80;;;6.10;;
3447;SDS011;1738;49.500;17.736;2022-07-29T11:59:50;9.90;;;6.60;;
3447;SDS011;1738;49.500;17.736;2022-07-29T12:02:16;14.07;;;6.17;;
3447;SDS011;1738;49.500;17.736;2022-07-29T12:04:48;13.30;;;6.53;;
3447;SDS011;1738;49.500;17.736;2022-07-29T12:07:13;8.97;;;6.53;;
3447;SDS011;1738;49.500;17.736;2022-07-29T12:09:39;9.97;;;6.40;;
3447;SDS011;1738;49.500;17.736;2022-07-29T12:12:05;9.87;;;6.37;;
3447;SDS011;1738;49.500;17.736;2022-07-29T12:14:32;8.93;;;5.70;;
3447;SDS011;1738;49.500;17.736;2022-07-29T12:16:57;10.07;;;5.27;;
3447;SDS011;1738;49.500;17.736;2022-07-29T12:19:23;17.20;;;7.27;;
3447;SDS011;1738;49.500;17.736;2022-07-29T12:21:49;11.97;;;6.10;;
3447;SDS011;1738;49.500;17.736;2022-07-29T12:24:14;13.23;;;6.90;;
3447;SDS011;1738;49.500;17.736;2022-07-29T12:29:15;7.60;;;6.20;;
3447;SDS011;1738;49.500;17.736;2022-07-29T12:31:41;12.83;;;6.90;;
3447;SDS011;1738;49.500;17.736;2022-07-29T12:34:06;12.13;;;6.87;;
3447;SDS011;1738;49.500;17.736;2022-07-29T12:36:32;9.87;;;6.47;;
3447;SDS011;1738;49.500;17.736;2022-07-29T12:38:58;8.80;;;6.50;;
3447;SDS011;1738;49.500;17.736;2022-07-29T12:41:24;9.83;;;6.57;;
3447;SDS011;1738;49.500;17.736;2022-07-29T12:43:51;11.03;;;7.13;;
3447;SDS011;1738;49.500;17.736;2022-07-29T12:46:16;18.97;;;7.27;;
3447;SDS011;1738;49.500;17.736;2022-07-29T12:48:42;12.53;;;6.00;;
3447;SDS011;1738;49.500;17.736;2022-07-29T12:51:08;7.50;;;5.90;;
3447;SDS011;1738;49.500;17.736;2022-07-29T12:53:34;12.37;;;7.33;;
3447;SDS011;1738;49.500;17.736;2022-07-29T12:56:00;18.03;;;7.20;;
3447;SDS011;1738;49.500;17.736;2022-07-29T12:58:37;11.47;;;6.60;;
3447;SDS011;1738;49.500;17.736;2022-07-29T13:01:03;13.90;;;7.00;;
3447;SDS011;1738;49.500;17.736;2022-07-29T13:03:27;16.10;;;10.53;;
3447;SDS011;1738;49.500;17.736;2022-07-29T13:05:53;14.30;;;6.77;;
3447;SDS011;1738;49.500;17.736;2022-07-29T13:08:18;21.23;;;8.20;;
3447;SDS011;1738;49.500;17.736;2022-07-29T13:10:45;17.70;;;12.40;;
3447;SDS011;1738;49.500;17.736;2022-07-29T13:13:13;23.10;;;17.30;;
3447;SDS011;1738;49.500;17.736;2022-07-29T13:15:39;31.93;;;24.27;;
3447;SDS011;1738;49.500;17.736;2022-07-29T13:18:04;13.33;;;8.00;;
3447;SDS011;1738;49.500;17.736;2022-07-29T13:20:30;13.77;;;8.05;;
3447;SDS011;1738;49.500;17.736;2022-07-29T13:22:56;21.27;;;11.20;;
3447;SDS011;1738;49.500;17.736;2022-07-29T13:25:31;15.60;;;10.23;;
3447;SDS011;1738;49.500;17.736;2022-07-29T13:27:58;23.47;;;14.30;;
3447;SDS011;1738;49.500;17.736;2022-07-29T13:30:23;7.90;;;7.10;;
3447;SDS011;1738;49.500;17.736;2022-07-29T13:32:49;13.80;;;7.30;;
3447;SDS011;1738;49.500;17.736;2022-07-29T13:35:14;10.70;;;7.20;;
3447;SDS011;1738;49.500;17.736;2022-07-29T13:37:40;8.30;;;6.80;;
3447;SDS011;1738;49.500;17.736;2022-07-29T13:40:07;11.93;;;7.70;;
3447;SDS011;1738;49.500;17.736;2022-07-29T13:42:32;11.17;;;7.30;;
3447;SDS011;1738;49.500;17.736;2022-07-29T13:44:58;15.83;;;8.60;;
3447;SDS011;1738;49.500;17.736;2022-07-29T13:47:24;10.47;;;8.07;;
3447;SDS011;1738;49.500;17.736;2022-07-29T13:49:50;16.77;;;7.93;;
3447;SDS011;1738;49.500;17.736;2022-07-29T13:52:16;11.37;;;8.47;;
3447;SDS011;1738;49.500;17.736;2022-07-29T13:54:42;14.23;;;7.10;;
3447;SDS011;1738;49.500;17.736;2022-07-29T13:57:08;12.43;;;10.57;;
3447;SDS011;1738;49.500;17.736;2022-07-29T13:59:33;9.20;;;7.50;;
3447;SDS011;1738;49.500;17.736;2022-07-29T14:01:59;8.83;;;6.50;;
3447;SDS011;1738;49.500;17.736;2022-07-29T14:04:25;9.47;;;7.13;;
3447;SDS011;1738;49.500;17.736;2022-07-29T14:06:51;12.37;;;7.30;;
3447;SDS011;1738;49.500;17.736;2022-07-29T14:09:17;11.73;;;6.60;;
3447;SDS011;1738;49.500;17.736;2022-07-29T14:11:43;7.43;;;6.63;;
3447;SDS011;1738;49.500;17.736;2022-07-29T14:14:09;9.63;;;7.90;;
3447;SDS011;1738;49.500;17.736;2022-07-29T14:16:34;13.53;;;6.83;;
3447;SDS011;1738;49.500;17.736;2022-07-29T14:19:00;8.77;;;6.70;;
3447;SDS011;1738;49.500;17.736;2022-07-29T14:21:26;8.43;;;6.07;;
3447;SDS011;1738;49.500;17.736;2022-07-29T14:23:52;14.13;;;6.93;;
3447;SDS011;1738;49.500;17.736;2022-07-29T14:26:18;10.33;;;6.80;;
3447;SDS011;1738;49.500;17.736;2022-07-29T14:28:44;15.90;;;8.23;;
3447;SDS011;1738;49.500;17.736;2022-07-29T14:31:10;11.53;;;7.43;;
3447;SDS011;1738;49.500;17.736;2022-07-29T14:33:36;13.27;;;7.77;;
3447;SDS011;1738;49.500;17.736;2022-07-29T14:36:02;10.73;;;7.53;;
3447;SDS011;1738;49.500;17.736;2022-07-29T14:38:27;9.50;;;6.60;;
3447;SDS011;1738;49.500;17.736;2022-07-29T14:40:54;10.80;;;7.70;;
3447;SDS011;1738;49.500;17.736;2022-07-29T14:43:19;11.83;;;6.90;;
3447;SDS011;1738;49.500;17.736;2022-07-29T14:45:45;9.60;;;6.33;;
3447;SDS011;1738;49.500;17.736;2022-07-29T14:48:11;7.87;;;6.77;;
3447;SDS011;1738;49.500;17.736;2022-07-29T14:50:37;13.83;;;8.83;;
3447;SDS011;1738;49.500;17.736;2022-07-29T14:53:03;11.03;;;6.37;;
3447;SDS011;1738;49.500;17.736;2022-07-29T14:55:29;10.17;;;7.07;;
3447;SDS011;1738;49.500;17.736;2022-07-29T14:57:55;9.93;;;6.43;;
3447;SDS011;1738;49.500;17.736;2022-07-29T15:00:21;15.40;;;6.83;;
3447;SDS011;1738;49.500;17.736;2022-07-29T15:02:47;7.90;;;6.40;;
3447;SDS011;1738;49.500;17.736;2022-07-29T15:05:12;11.10;;;6.20;;